X  Schließen METAR Luftfahrt Wetterdaten        LGTS Thessaloniki Macedonia International
Temperatur
10°C Temperatur
10°C Taupunkt
100% Feuchtigkeit



Wind
9 KM/S
6 MPS
3 M/S
5 KTS



110°
OSO
Aktuelle Wetterlage

Mostly Clear Größtenteils klar
Luftdruck 1014 (hPa) - 29.94 (inHg)
Sichtweite 6 (Meile) - 10 (Km)
Flughafen
Flughafen Code LGTS

Position : Thessaloniki Macedonia International
Entfernung: 85 (Km)

Metar:
METAR LGTS 032250Z 11005KT 9999 FEW015 10/10 Q1014 NOSIG

Zeit: 04-03-2024 00:50 EET